Listerhav — ZDKC7 — position and weather

sailwx.info

Track history (hours):
 
Tides and Currents Weather Stations Pressure Air Temp Water Temp Dewpoint Dewpoint Depression Visibility Wind Speed Wind Dir Waves Ship Positions

Listerhav

Last reported at 2015-Apr-17 15:20 UTC. Time now 2015-Apr-19 17:36 UTC.
Position N 55°11' E 014°17'.

Length 88 m; draft 4.1 m.

Type: Ship. MMSI: 236591000.

Date/timePositionNaut miles runAvg speedWind from/ knotsBaromVisibWave heightAir tempDewpointWater temp
2015-Apr-17 15:20N 55°11' E 014°17'3210.3
2015-Apr-17 12:12N 55°13' E 013°20'710.8
2015-Apr-17 11:33N 55°13' E 013°08'1110.8
2015-Apr-17 10:33N 55°15' E 012°50'9 9.3
2015-Apr-17 09:33N 55°22' E 012°39'1110.9
2015-Apr-17 08:33N 55°33' E 012°42'1111.1
2015-Apr-17 07:33N 55°44' E 012°41'1111.0
2015-Apr-17 06:34N 55°55' E 012°38'1110.7
2015-Apr-17 05:33N 56°05' E 012°34'1111.5
2015-Apr-17 04:33N 56°11' E 012°17'71 9.7
2015-Apr-16 21:17N 56°30' E 010°14'6 6.2
2015-Apr-16 20:19N 56°28' E 010°04'0 0.6
2015-Apr-16 19:33N 56°28' E 010°03'0 0.0
2015-Apr-16 18:33N 56°28' E 010°03'0 0.0
2015-Apr-16 17:33N 56°28' E 010°03'0 0.0
2015-Apr-16 16:33N 56°28' E 010°03'0 0.0
2015-Apr-16 15:33N 56°28' E 010°03'0 0.0
2015-Apr-16 14:27N 56°28' E 010°03'0 0.0
2015-Apr-16 13:33N 56°28' E 010°03'0 0.0
2015-Apr-16 12:03N 56°28' E 010°03'0 0.0
2015-Apr-16 11:30N 56°28' E 010°03'0 0.0
2015-Apr-16 10:33N 56°28' E 010°03'0 0.0
2015-Apr-16 09:27N 56°28' E 010°03'0 0.0
2015-Apr-16 08:27N 56°28' E 010°03'0 0.0
2015-Apr-16 06:03N 56°28' E 010°03'0 0.0
2015-Apr-16 05:33N 56°28' E 010°03'0 0.0
2015-Apr-16 04:30N 56°28' E 010°03'0 0.0
2015-Apr-16 03:33N 56°28' E 010°03'0 0.0
2015-Apr-16 02:33N 56°28' E 010°03'0 0.0
2015-Apr-16 01:27N 56°28' E 010°03'0 0.0
2015-Apr-16 00:33N 56°28' E 010°03'0 0.0
2015-Apr-15 23:27N 56°28' E 010°03'0 0.0
2015-Apr-15 22:33N 56°28' E 010°03'0 0.0
2015-Apr-15 21:21N 56°28' E 010°03'0 0.0
2015-Apr-15 20:33N 56°28' E 010°03'0 0.0
2015-Apr-15 19:33N 56°28' E 010°03'0 0.0
2015-Apr-15 18:33N 56°28' E 010°03'0 0.0
2015-Apr-15 17:26N 56°28' E 010°03'0 0.0
2015-Apr-15 16:30N 56°28' E 010°03'0 0.0
2015-Apr-15 15:29N 56°28' E 010°03'0 0.0
2015-Apr-15 14:32N 56°28' E 010°03'0 0.0
2015-Apr-15 13:08N 56°28' E 010°03'0 0.0
2015-Apr-15 12:26N 56°28' E 010°03'0 0.0
2015-Apr-15 11:32N 56°28' E 010°03'0 0.0
2015-Apr-15 10:26N 56°28' E 010°03'0 0.0
2015-Apr-15 09:32N 56°28' E 010°03'0 0.0
2015-Apr-15 08:29N 56°28' E 010°03'0 0.0
2015-Apr-15 07:32N 56°28' E 010°03'0 0.0
2015-Apr-15 04:26N 56°28' E 010°03'0 0.0
2015-Apr-15 00:32N 56°28' E 010°03'0 0.2
2015-Apr-14 23:33N 56°28' E 010°04'5 5.1
2015-Apr-14 22:33N 56°28' E 010°13'7 6.3
2015-Apr-14 21:31N 56°35' E 010°16'65 9.1
2015-Apr-14 14:26N 56°17' E 012°08'9 9.9
2015-Apr-14 13:33N 56°12' E 012°21'10 9.9
2015-Apr-14 12:33N 56°06' E 012°35'1010.5
2015-Apr-14 11:33N 55°56' E 012°43'1010.4
2015-Apr-14 10:33N 55°46' E 012°42'1110.7
2015-Apr-14 09:33N 55°35' E 012°42'1010.4
2015-Apr-14 08:33N 55°25' E 012°42'9 8.9
2015-Apr-14 07:33N 55°17' E 012°49'1010.1
2015-Apr-14 06:33N 55°16' E 013°07'1110.1
2015-Apr-14 05:31N 55°15' E 013°25'1310.0
2015-Apr-14 04:10N 55°14' E 013°49'1710.0
2015-Apr-14 02:31N 55°14' E 014°18'  
2015-Apr-09 23:23N 55°52' E 016°10'1011.3
2015-Apr-09 22:30N 55°47' E 015°54'1111.2
2015-Apr-09 21:32N 55°41' E 015°38'1111.1
2015-Apr-09 20:33N 55°36' E 015°21'1111.2
2015-Apr-09 19:33N 55°31' E 015°03'1111.5
2015-Apr-09 18:33N 55°25' E 014°46'1111.4
2015-Apr-09 17:33N 55°17' E 014°31'1111.2
2015-Apr-09 16:33N 55°11' E 014°15'1111.4
2015-Apr-09 15:33N 55°11' E 013°55'1211.6
2015-Apr-09 14:33N 55°12' E 013°35'1211.8
2015-Apr-09 13:33N 55°14' E 013°14'1211.7
2015-Apr-09 12:33N 55°15' E 012°54'1010.4
2015-Apr-09 11:33N 55°20' E 012°38'1110.9
2015-Apr-09 10:33N 55°31' E 012°42'1010.1
2015-Apr-09 09:34N 55°41' E 012°41'1110.5
2015-Apr-09 08:33N 55°52' E 012°40'1110.7
2015-Apr-09 07:33N 56°02' E 012°38'9 8.9
2015-Apr-09 06:33N 56°08' E 012°26'1111.4
2015-Apr-09 05:33N 56°14' E 012°09'1211.4
2015-Apr-09 04:28N 56°20' E 011°49'1011.4
2015-Apr-09 03:33N 56°24' E 011°32'2311.0
2015-Apr-09 01:30N 56°32' E 010°54'28 3.0
2015-Apr-08 16:12N 56°28' E 010°03'0 0.0
2015-Apr-08 15:33N 56°28' E 010°03'0 0.0
2015-Apr-08 14:30N 56°28' E 010°03'0 0.0
2015-Apr-08 13:33N 56°28' E 010°03'0 0.0
2015-Apr-08 12:33N 56°28' E 010°03'0 0.0
2015-Apr-08 11:33N 56°28' E 010°03'0 0.0
2015-Apr-08 10:33N 56°28' E 010°03'0 0.0
2015-Apr-08 09:33N 56°28' E 010°03'0 0.0
2015-Apr-08 08:33N 56°28' E 010°03'0 0.0
2015-Apr-08 03:33N 56°28' E 010°03'0 0.0
2015-Apr-08 02:30N 56°28' E 010°03'0 0.0
2015-Apr-08 01:21N 56°28' E 010°03'0 0.0
2015-Apr-07 21:26N 56°28' E 010°03'0 0.0
2015-Apr-07 20:23N 56°28' E 010°03'0 0.0
2015-Apr-07 19:23N 56°28' E 010°03'0 0.0
2015-Apr-07 17:29N 56°28' E 010°03'0 0.0
2015-Apr-07 16:32N 56°28' E 010°03'0 0.0
2015-Apr-07 15:23N 56°28' E 010°03'  
Track history (hours):
 
Tides and Currents Weather Stations Pressure Air Temp Water Temp Dewpoint Dewpoint Depression Visibility Wind Speed Wind Dir Waves Ship Positions

Listerhav

Last reported at 2015-Apr-17 15:20 UTC. Time now 2015-Apr-19 17:36 UTC.
Position N 55°11' E 014°17'.

Length 88 m; draft 4.1 m.

Type: Ship. MMSI: 236591000.

Date/timePositionNaut miles runAvg speedWind from/ knotsBaromVisibWave heightAir tempDewpointWater temp
2015-Apr-17 15:20N 55°11' E 014°17'3210.3
2015-Apr-17 12:12N 55°13' E 013°20'710.8
2015-Apr-17 11:33N 55°13' E 013°08'1110.8
2015-Apr-17 10:33N 55°15' E 012°50'9 9.3
2015-Apr-17 09:33N 55°22' E 012°39'1110.9
2015-Apr-17 08:33N 55°33' E 012°42'1111.1
2015-Apr-17 07:33N 55°44' E 012°41'1111.0
2015-Apr-17 06:34N 55°55' E 012°38'1110.7
2015-Apr-17 05:33N 56°05' E 012°34'1111.5
2015-Apr-17 04:33N 56°11' E 012°17'71 9.7
2015-Apr-16 21:17N 56°30' E 010°14'6 6.2
2015-Apr-16 20:19N 56°28' E 010°04'0 0.6
2015-Apr-16 19:33N 56°28' E 010°03'0 0.0
2015-Apr-16 18:33N 56°28' E 010°03'0 0.0
2015-Apr-16 17:33N 56°28' E 010°03'0 0.0
2015-Apr-16 16:33N 56°28' E 010°03'0 0.0
2015-Apr-16 15:33N 56°28' E 010°03'0 0.0
2015-Apr-16 14:27N 56°28' E 010°03'0 0.0
2015-Apr-16 13:33N 56°28' E 010°03'0 0.0
2015-Apr-16 12:03N 56°28' E 010°03'0 0.0
2015-Apr-16 11:30N 56°28' E 010°03'0 0.0
2015-Apr-16 10:33N 56°28' E 010°03'0 0.0
2015-Apr-16 09:27N 56°28' E 010°03'0 0.0
2015-Apr-16 08:27N 56°28' E 010°03'0 0.0
2015-Apr-16 06:03N 56°28' E 010°03'0 0.0
2015-Apr-16 05:33N 56°28' E 010°03'0 0.0
2015-Apr-16 04:30N 56°28' E 010°03'0 0.0
2015-Apr-16 03:33N 56°28' E 010°03'0 0.0
2015-Apr-16 02:33N 56°28' E 010°03'0 0.0
2015-Apr-16 01:27N 56°28' E 010°03'0 0.0
2015-Apr-16 00:33N 56°28' E 010°03'0 0.0
2015-Apr-15 23:27N 56°28' E 010°03'0 0.0
2015-Apr-15 22:33N 56°28' E 010°03'0 0.0
2015-Apr-15 21:21N 56°28' E 010°03'0 0.0
2015-Apr-15 20:33N 56°28' E 010°03'0 0.0
2015-Apr-15 19:33N 56°28' E 010°03'0 0.0
2015-Apr-15 18:33N 56°28' E 010°03'0 0.0
2015-Apr-15 17:26N 56°28' E 010°03'0 0.0
2015-Apr-15 16:30N 56°28' E 010°03'0 0.0
2015-Apr-15 15:29N 56°28' E 010°03'0 0.0
2015-Apr-15 14:32N 56°28' E 010°03'0 0.0
2015-Apr-15 13:08N 56°28' E 010°03'0 0.0
2015-Apr-15 12:26N 56°28' E 010°03'0 0.0
2015-Apr-15 11:32N 56°28' E 010°03'0 0.0
2015-Apr-15 10:26N 56°28' E 010°03'0 0.0
2015-Apr-15 09:32N 56°28' E 010°03'0 0.0
2015-Apr-15 08:29N 56°28' E 010°03'0 0.0
2015-Apr-15 07:32N 56°28' E 010°03'0 0.0
2015-Apr-15 04:26N 56°28' E 010°03'0 0.0
2015-Apr-15 00:32N 56°28' E 010°03'0 0.2
2015-Apr-14 23:33N 56°28' E 010°04'5 5.1
2015-Apr-14 22:33N 56°28' E 010°13'7 6.3
2015-Apr-14 21:31N 56°35' E 010°16'65 9.1
2015-Apr-14 14:26N 56°17' E 012°08'9 9.9
2015-Apr-14 13:33N 56°12' E 012°21'10 9.9
2015-Apr-14 12:33N 56°06' E 012°35'1010.5
2015-Apr-14 11:33N 55°56' E 012°43'1010.4
2015-Apr-14 10:33N 55°46' E 012°42'1110.7
2015-Apr-14 09:33N 55°35' E 012°42'1010.4
2015-Apr-14 08:33N 55°25' E 012°42'9 8.9
2015-Apr-14 07:33N 55°17' E 012°49'1010.1
2015-Apr-14 06:33N 55°16' E 013°07'1110.1
2015-Apr-14 05:31N 55°15' E 013°25'1310.0
2015-Apr-14 04:10N 55°14' E 013°49'1710.0
2015-Apr-14 02:31N 55°14' E 014°18'  
2015-Apr-09 23:23N 55°52' E 016°10'1011.3
2015-Apr-09 22:30N 55°47' E 015°54'1111.2
2015-Apr-09 21:32N 55°41' E 015°38'1111.1
2015-Apr-09 20:33N 55°36' E 015°21'1111.2
2015-Apr-09 19:33N 55°31' E 015°03'1111.5
2015-Apr-09 18:33N 55°25' E 014°46'1111.4
2015-Apr-09 17:33N 55°17' E 014°31'1111.2
2015-Apr-09 16:33N 55°11' E 014°15'1111.4
2015-Apr-09 15:33N 55°11' E 013°55'1211.6
2015-Apr-09 14:33N 55°12' E 013°35'1211.8
2015-Apr-09 13:33N 55°14' E 013°14'1211.7
2015-Apr-09 12:33N 55°15' E 012°54'1010.4
2015-Apr-09 11:33N 55°20' E 012°38'1110.9
2015-Apr-09 10:33N 55°31' E 012°42'1010.1
2015-Apr-09 09:34N 55°41' E 012°41'1110.5
2015-Apr-09 08:33N 55°52' E 012°40'1110.7
2015-Apr-09 07:33N 56°02' E 012°38'9 8.9
2015-Apr-09 06:33N 56°08' E 012°26'1111.4
2015-Apr-09 05:33N 56°14' E 012°09'1211.4
2015-Apr-09 04:28N 56°20' E 011°49'1011.4
2015-Apr-09 03:33N 56°24' E 011°32'2311.0
2015-Apr-09 01:30N 56°32' E 010°54'28 3.0
2015-Apr-08 16:12N 56°28' E 010°03'0 0.0
2015-Apr-08 15:33N 56°28' E 010°03'0 0.0
2015-Apr-08 14:30N 56°28' E 010°03'0 0.0
2015-Apr-08 13:33N 56°28' E 010°03'0 0.0
2015-Apr-08 12:33N 56°28' E 010°03'0 0.0
2015-Apr-08 11:33N 56°28' E 010°03'0 0.0
2015-Apr-08 10:33N 56°28' E 010°03'0 0.0
2015-Apr-08 09:33N 56°28' E 010°03'0 0.0
2015-Apr-08 08:33N 56°28' E 010°03'0 0.0
2015-Apr-08 03:33N 56°28' E 010°03'0 0.0
2015-Apr-08 02:30N 56°28' E 010°03'0 0.0
2015-Apr-08 01:21N 56°28' E 010°03'0 0.0
2015-Apr-07 21:26N 56°28' E 010°03'0 0.0
2015-Apr-07 20:23N 56°28' E 010°03'0 0.0
2015-Apr-07 19:23N 56°28' E 010°03'0 0.0
2015-Apr-07 17:29N 56°28' E 010°03'0 0.0
2015-Apr-07 16:32N 56°28' E 010°03'0 0.0
2015-Apr-07 15:23N 56°28' E 010°03'  

Dump ship's entire track history